Time;durP1;ratioP1;P1;durP2;ratioP2;P2;SDS_P1;SDS_P2;PMS_P1;PMS_P2;Temp;Humidity;BMP_temperature;BMP_pressure;BME280_temperature;BME280_humidity;BME280_pressure;Samples;Min_cycle;Max_cycle;Signal;HPM_P1;HPM_P2
2023/10/02 00:01:48;;;;;;;28.10;10.82;;;;;;;15.68;100.00;101869.22;5065086;28;20392;-72
2023/10/02 00:04:17;;;;;;;25.45;10.50;;;;;;;15.65;100.00;101875.75;5055711;28;20022;-71
2023/10/02 00:06:43;;;;;;;24.00;10.68;;;;;;;15.65;100.00;101878.47;5056777;28;20072;-72
2023/10/02 00:09:09;;;;;;;27.40;11.63;;;;;;;15.63;100.00;101875.00;5038160;28;20084;-72
2023/10/02 00:11:39;;;;;;;26.08;11.43;;;;;;;15.63;100.00;101875.00;5065428;28;20472;-72
2023/10/02 00:14:25;;;;;;;27.42;10.70;;;;;;;15.62;100.00;101875.97;5059350;28;20078;-72
2023/10/02 00:17:04;;;;;;;24.58;10.98;;;;;;;15.60;100.00;101877.94;5051334;28;20167;-72
2023/10/02 00:19:43;;;;;;;25.70;10.38;;;;;;;15.61;100.00;101876.09;5051934;28;20020;-72
2023/10/02 00:22:35;;;;;;;27.95;10.10;;;;;;;15.60;100.00;101880.66;5052439;28;20052;-72
2023/10/02 00:25:09;;;;;;;26.63;10.60;;;;;;;15.58;100.00;101881.75;5049804;28;20097;-72
2023/10/02 00:27:36;;;;;;;24.73;10.20;;;;;;;15.56;100.00;101871.03;5053059;28;20113;-71
2023/10/02 00:30:03;;;;;;;26.00;9.48;;;;;;;15.55;100.00;101877.47;5045986;28;20025;-71
2023/10/02 00:32:34;;;;;;;24.10;10.07;;;;;;;15.51;100.00;101874.09;5058068;28;20041;-72
2023/10/02 00:35:00;;;;;;;26.55;10.05;;;;;;;15.51;100.00;101881.38;5052994;28;20435;-72
2023/10/02 00:37:46;;;;;;;24.30;9.73;;;;;;;15.48;100.00;101874.34;5058750;28;20029;-71
2023/10/02 00:40:21;;;;;;;28.25;11.05;;;;;;;15.44;100.00;101869.31;5056192;28;20028;-71
2023/10/02 00:42:54;;;;;;;26.52;10.77;;;;;;;15.42;100.00;101873.94;5055365;28;20028;-71
2023/10/02 00:45:20;;;;;;;24.63;10.45;;;;;;;15.39;100.00;101875.06;5062746;28;20044;-71
2023/10/02 00:47:47;;;;;;;27.23;10.23;;;;;;;15.33;100.00;101876.41;5056069;28;20148;-72
2023/10/02 00:50:23;;;;;;;26.05;10.15;;;;;;;15.30;100.00;101871.22;5050734;28;20025;-72
2023/10/02 00:53:00;;;;;;;25.88;10.73;;;;;;;15.26;100.00;101863.47;5042992;28;20044;-71
2023/10/02 00:55:34;;;;;;;23.45;10.02;;;;;;;15.20;100.00;101868.34;5054078;28;20028;-72
2023/10/02 00:58:02;;;;;;;26.77;9.98;;;;;;;15.17;100.00;101856.91;5053484;28;20446;-71
2023/10/02 01:00:35;;;;;;;24.63;10.65;;;;;;;15.11;100.00;101863.66;5057046;28;20024;-69
2023/10/02 01:03:02;;;;;;;25.70;10.30;;;;;;;15.09;100.00;101860.19;5054246;28;20123;-69
2023/10/02 01:05:41;;;;;;;26.65;9.48;;;;;;;15.06;100.00;101868.56;5058298;28;20351;-70
2023/10/02 01:08:23;;;;;;;25.10;9.23;;;;;;;15.00;100.00;101861.75;5056393;28;20043;-69
2023/10/02 01:10:58;;;;;;;25.35;10.75;;;;;;;14.97;100.00;101853.88;5061817;28;20064;-69
2023/10/02 01:13:27;;;;;;;33.63;10.85;;;;;;;14.95;100.00;101850.44;5050125;28;20139;-69
2023/10/02 01:15:59;;;;;;;23.13;8.57;;;;;;;14.94;100.00;101859.53;5044848;28;20035;-69
2023/10/02 01:18:27;;;;;;;29.42;10.15;;;;;;;14.92;100.00;101853.38;5048292;28;20083;-69
2023/10/02 01:20:56;;;;;;;25.80;9.95;;;;;;;14.90;100.00;101847.19;5061017;28;20107;-69
2023/10/02 01:23:27;;;;;;;26.33;10.60;;;;;;;14.92;100.00;101845.25;5049711;28;20083;-69
2023/10/02 01:25:57;;;;;;;23.25;10.00;;;;;;;14.89;100.00;101848.19;5052774;28;20033;-69
2023/10/02 01:28:29;;;;;;;25.75;10.88;;;;;;;14.91;100.00;101843.50;5060527;28;20024;-69
2023/10/02 01:30:55;;;;;;;25.52;10.75;;;;;;;14.95;100.00;101845.00;5048652;28;20116;-69
2023/10/02 01:33:22;;;;;;;26.63;10.07;;;;;;;14.96;100.00;101845.88;5054820;28;20104;-69
2023/10/02 01:35:56;;;;;;;26.70;10.23;;;;;;;14.98;100.00;101852.91;5051045;28;20033;-69
2023/10/02 01:38:31;;;;;;;29.60;10.48;;;;;;;14.99;100.00;101843.81;5055171;28;20033;-69
2023/10/02 01:41:04;;;;;;;27.88;11.20;;;;;;;14.98;100.00;101844.78;5064217;28;20380;-69
2023/10/02 01:43:36;;;;;;;27.67;10.05;;;;;;;14.99;100.00;101842.91;5061193;28;20048;-69
2023/10/02 01:46:03;;;;;;;26.45;10.13;;;;;;;14.99;100.00;101843.81;5058023;28;20028;-69
2023/10/02 01:48:37;;;;;;;25.95;10.52;;;;;;;14.98;100.00;101839.38;5054134;28;20341;-69
2023/10/02 01:51:20;;;;;;;24.83;9.95;;;;;;;14.97;100.00;101840.34;5055794;28;20028;-68
2023/10/02 01:53:46;;;;;;;23.98;9.27;;;;;;;14.97;100.00;101847.59;5062148;28;20112;-69
2023/10/02 01:56:12;;;;;;;24.08;9.85;;;;;;;14.97;100.00;101843.03;5058786;28;20260;-70
2023/10/02 01:58:42;;;;;;;25.60;9.90;;;;;;;14.96;100.00;101838.59;5054558;28;20043;-69
2023/10/02 02:01:11;;;;;;;24.73;8.80;;;;;;;14.97;100.00;101837.63;5057326;28;20025;-69
2023/10/02 02:03:41;;;;;;;25.50;10.05;;;;;;;14.97;100.00;101832.22;5059339;28;20032;-69
2023/10/02 02:06:09;;;;;;;;;;;;;;;15.05;100.00;101838.88;5055474;28;20452;-69
2023/10/02 02:08:43;;;;;;;24.70;10.27;;;;;;;15.00;100.00;101833.84;5050257;28;19917;-69
2023/10/02 02:11:16;;;;;;;25.80;11.00;;;;;;;15.02;100.00;101840.88;5053191;28;20028;-69
2023/10/02 02:13:52;;;;;;;25.67;10.23;;;;;;;15.02;100.00;101835.44;5062006;28;20190;-69
2023/10/02 02:16:33;;;;;;;25.63;9.93;;;;;;;15.02;100.00;101837.28;5059445;28;20078;-71
2023/10/02 02:19:05;;;;;;;24.55;9.82;;;;;;;15.00;100.00;101840.09;5055858;28;20040;-72
2023/10/02 02:21:31;;;;;;;26.73;10.25;;;;;;;15.00;100.00;101841.94;5043984;28;20036;-72
2023/10/02 02:24:03;;;;;;;26.23;10.43;;;;;;;14.97;100.00;101834.06;5056124;28;20111;-72
2023/10/02 02:26:33;;;;;;;26.90;10.27;;;;;;;14.96;100.00;101844.00;5064684;28;20024;-71
2023/10/02 02:29:02;;;;;;;28.73;10.00;;;;;;;14.94;100.00;101837.00;5057830;28;20024;-69
2023/10/02 02:31:31;;;;;;;25.95;10.50;;;;;;;14.93;100.00;101838.84;5044488;28;20029;-69
2023/10/02 02:34:08;;;;;;;23.08;8.68;;;;;;;14.92;100.00;101836.25;5065123;28;20077;-69
2023/10/02 02:36:35;;;;;;;27.33;9.70;;;;;;;14.88;100.00;101834.78;5057278;28;20029;-69
2023/10/02 02:39:15;;;;;;;27.15;9.85;;;;;;;14.88;100.00;101838.34;5062600;28;20028;-69
2023/10/02 02:41:46;;;;;;;28.30;10.15;;;;;;;14.88;100.00;101827.50;5061998;28;20177;-69
2023/10/02 02:46:57;;;;;;;28.35;11.23;;;;;;;14.86;100.00;101824.03;5056378;28;20499;-68
2023/10/02 02:49:29;;;;;;;24.27;10.05;;;;;;;14.85;100.00;101822.34;5062619;28;20065;-69
2023/10/02 02:51:55;;;;;;;25.63;10.15;;;;;;;14.83;100.00;101819.75;5050255;28;20474;-69
2023/10/02 02:54:25;;;;;;;27.38;11.73;;;;;;;14.80;100.00;101821.81;5057498;28;20048;-69
2023/10/02 02:56:56;;;;;;;;;;;;;;;14.89;100.00;101825.66;5064591;28;20044;-69
2023/10/02 02:59:26;;;;;;;25.90;10.25;;;;;;;14.82;100.00;101819.88;5053102;28;19917;-69
2023/10/02 03:01:52;;;;;;;26.92;11.52;;;;;;;14.80;100.00;101816.38;5059469;28;20097;-69
2023/10/02 03:04:18;;;;;;;24.77;10.43;;;;;;;14.77;100.00;101820.19;5058685;28;20025;-70
2023/10/02 03:06:43;;;;;;;26.60;9.93;;;;;;;14.78;100.00;101813.81;5059909;28;20648;-70
2023/10/02 03:09:09;;;;;;;23.67;9.00;;;;;;;14.75;100.00;101815.91;5064197;28;20097;-69
2023/10/02 03:11:34;;;;;;;24.77;9.40;;;;;;;14.75;100.00;101807.78;5057351;28;20433;-69
2023/10/02 03:14:12;;;;;;;22.77;8.32;;;;;;;14.74;100.00;101808.75;5059927;28;20094;-69
2023/10/02 03:16:38;;;;;;;25.25;9.50;;;;;;;14.74;100.00;101808.75;5060300;28;20392;-69
2023/10/02 03:19:07;;;;;;;24.48;9.82;;;;;;;14.74;100.00;101808.75;5060500;28;20040;-69
2023/10/02 03:21:34;;;;;;;28.42;10.20;;;;;;;14.75;100.00;101795.09;5059377;28;20029;-69
2023/10/02 03:24:01;;;;;;;24.42;9.38;;;;;;;14.76;100.00;101787.84;5052017;28;20021;-69
2023/10/02 03:26:27;;;;;;;28.33;11.00;;;;;;;14.77;100.00;101792.28;5056246;28;20142;-69
2023/10/02 03:29:00;;;;;;;25.58;10.25;;;;;;;14.75;100.00;101794.25;5047078;28;20479;-71
2023/10/02 03:31:36;;;;;;;25.58;10.02;;;;;;;14.75;100.00;101791.53;5057840;28;20162;-72
2023/10/02 03:36:52;;;;;;;23.92;10.02;;;;;;;14.78;100.00;101794.88;5055039;28;20083;-72
2023/10/02 03:39:24;;;;;;;28.15;10.75;;;;;;;14.81;100.00;101799.19;5050275;28;20400;-71
2023/10/02 03:41:55;;;;;;;26.48;9.65;;;;;;;14.82;100.00;101799.06;5063555;28;20021;-71
2023/10/02 03:44:22;;;;;;;29.38;10.63;;;;;;;14.86;100.00;101802.38;5052030;28;20059;-72
2023/10/02 03:46:48;;;;;;;27.73;10.70;;;;;;;14.85;100.00;101795.28;5052950;28;20056;-72
2023/10/02 03:49:17;;;;;;;25.20;9.15;;;;;;;14.83;100.00;101795.38;5047325;28;20072;-71
2023/10/02 03:51:44;;;;;;;28.80;9.93;;;;;;;14.84;100.00;101797.09;5037040;28;20029;-71
2023/10/02 03:54:17;;;;;;;25.33;10.38;;;;;;;14.86;100.00;101796.97;5060648;28;20515;-72
2023/10/02 03:56:54;;;;;;;27.50;10.43;;;;;;;14.84;100.00;101804.34;5054319;28;20120;-72
2023/10/02 03:59:27;;;;;;;26.38;10.73;;;;;;;14.85;100.00;101806.09;5055841;28;20651;-72
2023/10/02 04:04:40;;;;;;;29.27;10.30;;;;;;;14.86;100.00;101799.69;5045574;28;20094;-72
2023/10/02 04:07:05;;;;;;;26.92;10.57;;;;;;;14.85;100.00;101803.38;5046903;28;20025;-72
2023/10/02 04:09:31;;;;;;;26.52;10.23;;;;;;;14.85;100.00;101801.53;5061294;28;20476;-72
2023/10/02 04:11:56;;;;;;;24.98;10.57;;;;;;;14.86;100.00;101799.69;5043945;28;20029;-72
2023/10/02 04:14:31;;;;;;;25.77;8.60;;;;;;;14.85;100.00;101801.53;5059633;28;20363;-71
2023/10/02 04:17:49;;;;;;;25.63;10.25;;;;;;;14.87;100.00;101798.72;5047001;28;20108;-71
2023/10/02 04:19:49;;;;;;;26.95;11.05;;;;;;;14.88;100.00;101795.03;5039968;28;20108;-71
2023/10/02 04:22:25;;;;;;;27.67;10.75;;;;;;;14.87;100.00;101790.59;5052826;28;20036;-72
2023/10/02 04:24:54;;;;;;;27.38;10.60;;;;;;;14.86;100.00;101791.56;5051605;28;20094;-72
2023/10/02 04:32:49;;;;;;;27.67;9.65;;;;;;;14.77;100.00;101793.13;5053550;28;20393;-72
2023/10/02 04:37:59;;;;;;;27.88;10.63;;;;;;;14.73;100.00;101797.06;5053790;28;20122;-69
2023/10/02 04:40:37;;;;;;;28.27;10.32;;;;;;;14.74;100.00;101789.81;5057857;28;20044;-69
2023/10/02 04:43:19;;;;;;;26.85;10.80;;;;;;;14.72;100.00;101789.91;5047092;28;20034;-69
2023/10/02 04:45:46;;;;;;;30.23;11.50;;;;;;;14.71;100.00;101793.59;5047390;28;20087;-69
2023/10/02 04:48:12;;;;;;;32.42;10.90;;;;;;;14.72;100.00;101795.34;5043593;28;20056;-69
2023/10/02 04:50:45;;;;;;;25.40;9.68;;;;;;;14.71;100.00;101792.75;5054430;28;20045;-69
2023/10/02 04:55:43;;;;;;;25.83;9.88;;;;;;;14.67;100.00;101794.81;5040726;28;20030;-69
2023/10/02 04:58:14;;;;;;;24.55;9.45;;;;;;;14.62;100.00;101786.19;5049194;28;20473;-69
2023/10/02 05:03:31;;;;;;;27.50;10.98;;;;;;;14.57;100.00;101789.22;5042744;28;20044;-69
2023/10/02 05:06:00;;;;;;;25.15;10.35;;;;;;;14.55;100.00;101784.88;5049939;28;20121;-69
2023/10/02 05:08:41;;;;;;;28.15;11.05;;;;;;;14.51;100.00;101781.56;5049539;28;20052;-69
2023/10/02 05:11:23;;;;;;;28.42;10.68;;;;;;;14.50;100.00;101785.25;5059985;28;20484;-70
2023/10/02 05:16:29;;;;;;;26.52;10.60;;;;;;;14.45;100.00;101787.41;5045115;28;20061;-69
2023/10/02 05:18:55;;;;;;;27.27;12.40;;;;;;;14.44;100.00;101785.72;5054228;28;20089;-69
2023/10/02 05:21:35;;;;;;;27.58;11.10;;;;;;;14.41;100.00;101792.19;5053993;28;20037;-70
2023/10/02 05:24:02;;;;;;;24.48;9.60;;;;;;;14.40;100.00;101792.31;5050816;28;20120;-69
2023/10/02 05:26:34;;;;;;;28.50;10.73;;;;;;;14.37;100.00;101790.69;5050462;28;20472;-69
2023/10/02 05:29:00;;;;;;;31.77;11.13;;;;;;;14.36;100.00;101793.53;5054926;28;20214;-70
2023/10/02 05:31:27;;;;;;;26.27;11.23;;;;;;;14.33;100.00;101792.78;5053974;28;20097;-69
2023/10/02 05:33:52;;;;;;;23.77;9.68;;;;;;;14.31;100.00;101801.97;5053441;28;20107;-69
2023/10/02 05:36:21;;;;;;;26.40;11.50;;;;;;;14.30;100.00;101797.53;5049026;28;20112;-69
2023/10/02 05:39:16;;;;;;;25.33;10.37;;;;;;;14.27;100.00;101787.81;5038000;28;20083;-69
2023/10/02 05:41:41;;;;;;;26.98;9.70;;;;;;;14.25;100.00;101797.88;5041417;28;20298;-69
2023/10/02 05:44:13;;;;;;;29.23;10.80;;;;;;;14.22;100.00;101795.41;5063492;28;20050;-71
2023/10/02 05:46:55;;;;;;;29.77;11.57;;;;;;;14.23;100.00;101799.84;5039508;28;20112;-71
2023/10/02 05:49:23;;;;;;;26.27;10.20;;;;;;;14.20;100.00;101799.19;5033186;28;20324;-71
2023/10/02 05:51:49;;;;;;;24.83;10.98;;;;;;;14.16;100.00;101803.97;5046851;28;20488;-71
2023/10/02 05:54:26;;;;;;;23.75;10.15;;;;;;;14.14;100.00;101805.91;5032776;28;20112;-71
2023/10/02 05:57:08;;;;;;;27.75;10.73;;;;;;;14.09;100.00;101818.91;5038433;28;20155;-71
2023/10/02 05:59:47;;;;;;;27.67;10.27;;;;;;;14.08;100.00;101818.03;5036445;28;20020;-72
2023/10/02 06:02:22;;;;;;;27.95;11.57;;;;;;;14.09;100.00;101816.22;5043276;28;20020;-71
2023/10/02 06:04:49;;;;;;;29.98;10.75;;;;;;;14.07;100.00;101821.72;5038644;28;20251;-72
2023/10/02 06:10:08;;;;;;;24.58;10.32;;;;;;;14.11;100.00;101811.53;5043953;28;20127;-71
2023/10/02 06:12:42;;;;;;;26.50;11.02;;;;;;;14.10;100.00;101810.69;5041640;28;20030;-71
2023/10/02 06:15:42;;;;;;;26.50;11.73;;;;;;;14.12;100.00;101813.28;5040055;28;20017;-71
2023/10/02 06:17:54;;;;;;;26.67;10.93;;;;;;;14.13;100.00;101813.16;5038559;28;20044;-71
2023/10/02 06:20:19;;;;;;;30.50;11.13;;;;;;;14.18;100.00;101817.38;5040905;28;21987;-72
2023/10/02 06:22:47;;;;;;;30.42;11.98;;;;;;;14.20;100.00;101827.09;5051395;28;20068;-72
2023/10/02 06:25:18;;;;;;;31.83;12.00;;;;;;;14.22;100.00;101816.19;5048081;28;20021;-72
2023/10/02 06:27:45;;;;;;;26.60;10.77;;;;;;;14.24;100.00;101820.47;5051492;28;20092;-72
2023/10/02 06:30:16;;;;;;;29.63;12.77;;;;;;;14.29;100.00;101820.13;5042729;28;20056;-72
2023/10/02 06:32:52;;;;;;;27.88;11.32;;;;;;;14.30;100.00;101816.47;5061952;28;20040;-71
2023/10/02 06:35:21;;;;;;;29.48;12.18;;;;;;;14.34;100.00;101820.69;5051480;28;20021;-71
2023/10/02 06:37:47;;;;;;;28.45;12.02;;;;;;;14.37;100.00;101823.16;5048616;28;20067;-72
2023/10/02 06:40:16;;;;;;;30.45;12.77;;;;;;;14.40;100.00;101813.97;5047041;28;20511;-72
2023/10/02 06:43:00;;;;;;;29.00;11.57;;;;;;;14.43;100.00;101829.94;5058577;28;20065;-72
2023/10/02 06:45:26;;;;;;;30.17;12.30;;;;;;;14.47;100.00;101817.94;5050186;28;20025;-71
2023/10/02 06:47:52;;;;;;;29.88;13.38;;;;;;;14.53;100.00;101831.00;5056057;28;20049;-71
2023/10/02 06:50:35;;;;;;;29.13;13.48;;;;;;;14.57;100.00;101828.91;5047708;28;20048;-71
2023/10/02 06:53:01;;;;;;;28.23;12.05;;;;;;;14.61;100.00;101833.13;5044123;28;20017;-72
2023/10/02 06:55:27;;;;;;;29.73;13.07;;;;;;;14.65;100.00;101824.69;5045412;28;20017;-72
2023/10/02 06:57:53;;;;;;;29.60;13.48;;;;;;;14.68;100.00;101827.19;5049062;28;20029;-71
2023/10/02 07:00:21;;;;;;;29.50;12.65;;;;;;;14.72;100.00;101821.53;5045235;28;20473;-71
2023/10/02 07:02:58;;;;;;;31.20;12.90;;;;;;;14.76;100.00;101826.59;5055707;28;20024;-72
2023/10/02 07:05:27;;;;;;;30.45;13.13;;;;;;;14.79;100.00;101823.66;5058279;28;20508;-71
2023/10/02 07:08:01;;;;;;;31.58;13.23;;;;;;;14.85;100.00;101823.19;5052736;28;20462;-72
2023/10/02 07:10:29;;;;;;;33.67;13.32;;;;;;;14.88;100.00;101816.69;5047617;28;20549;-72
2023/10/02 07:12:55;;;;;;;31.17;13.60;;;;;;;14.93;100.00;101825.31;5053198;28;20033;-71
2023/10/02 07:15:22;;;;;;;29.50;13.15;;;;;;;14.99;100.00;101818.56;5053075;28;20087;-71
2023/10/02 07:17:48;;;;;;;28.05;13.13;;;;;;;15.04;100.00;101813.66;5047733;28;20056;-72
2023/10/02 07:20:20;;;;;;;34.53;13.48;;;;;;;15.10;100.00;101820.47;5055639;28;20030;-71
2023/10/02 07:22:46;;;;;;;27.25;12.50;;;;;;;15.15;100.00;101818.25;5042597;28;20111;-71
2023/10/02 07:25:11;;;;;;;27.27;13.63;;;;;;;15.22;100.00;101827.63;5039287;28;20466;-72
2023/10/02 07:27:37;;;;;;;33.35;14.15;;;;;;;15.28;100.00;101820.88;5044538;28;20025;-71
2023/10/02 07:30:04;;;;;;;31.65;12.02;;;;;;;15.32;100.00;101820.50;5054361;28;20021;-72
2023/10/02 07:32:34;;;;;;;31.33;13.32;;;;;;;15.40;100.00;101813.63;5051984;28;20456;-71
2023/10/02 07:35:09;;;;;;;31.60;13.73;;;;;;;15.45;100.00;101823.13;5049527;28;20023;-71
2023/10/02 07:37:35;;;;;;;29.45;12.68;;;;;;;15.52;100.00;101824.38;5053359;28;20822;-71
2023/10/02 07:40:02;;;;;;;31.42;12.93;;;;;;;15.55;100.00;101824.13;5045495;28;20021;-72
2023/10/02 07:42:31;;;;;;;28.05;11.90;;;;;;;15.59;100.00;101827.44;5045658;28;20048;-72
2023/10/02 07:45:24;;;;;;;27.58;12.70;;;;;;;15.66;100.00;101827.81;5060982;28;20124;-71
2023/10/02 07:48:08;;;;;;;29.85;12.80;;;;;;;15.70;100.00;101832.88;5047173;28;20132;-71
2023/10/02 07:50:34;;;;;;;29.25;12.63;;;;;;;15.73;100.00;101826.34;5043385;28;20383;-71
2023/10/02 07:53:06;;;;;;;31.85;12.50;;;;;;;15.78;100.00;101820.56;5042244;28;20104;-72
2023/10/02 07:55:40;;;;;;;26.92;11.48;;;;;;;15.81;100.00;101818.53;5048312;28;20429;-71
2023/10/02 07:58:08;;;;;;;35.70;12.88;;;;;;;15.83;100.00;101818.41;5044092;28;20019;-71
2023/10/02 08:00:38;;;;;;;35.60;13.70;;;;;;;15.87;100.00;101819.84;5053637;28;20017;-71
2023/10/02 08:03:31;;;;;;;30.70;12.57;;;;;;;15.88;100.00;101819.72;5050755;28;20036;-71
2023/10/02 08:05:56;;;;;;;;;;;;;;;15.94;100.00;101823.78;5061210;28;20101;-71
2023/10/02 08:08:31;;;;;;;36.88;12.40;;;;;;;15.93;100.00;101819.38;5062094;28;20361;-69
2023/10/02 08:10:56;;;;;;;27.00;11.90;;;;;;;15.97;100.00;101819.97;5056028;28;20026;-69
2023/10/02 08:13:32;;;;;;;29.13;12.27;;;;;;;15.98;100.00;101816.28;5051256;28;20039;-69
2023/10/02 08:16:06;;;;;;;30.08;13.80;;;;;;;16.00;100.00;101830.56;5046052;28;20466;-69
2023/10/02 08:18:31;;;;;;;29.77;12.90;;;;;;;16.02;100.00;101837.59;5051899;28;20098;-71
2023/10/02 08:20:58;;;;;;;32.72;13.07;;;;;;;16.04;100.00;101832.91;5058319;28;20507;-71
2023/10/02 08:23:23;;;;;;;31.60;13.00;;;;;;;16.07;100.00;101824.53;5039312;28;20036;-72
2023/10/02 08:26:00;;;;;;;30.35;13.23;;;;;;;16.13;100.00;101835.88;5048948;28;20439;-72
2023/10/02 08:28:30;;;;;;;29.98;12.35;;;;;;;16.19;100.00;101832.66;5053587;28;20103;-71
2023/10/02 08:31:01;;;;;;;28.75;12.82;;;;;;;16.26;100.00;101831.16;5059883;28;20029;-72
2023/10/02 08:33:30;;;;;;;29.50;11.93;;;;;;;16.31;100.00;101828.94;5053363;28;20028;-72
2023/10/02 08:35:56;;;;;;;28.33;12.25;;;;;;;16.37;100.00;101831.16;5048561;28;20022;-71
2023/10/02 08:38:25;;;;;;;31.50;12.55;;;;;;;16.42;100.00;101826.19;5060146;28;20043;-72
2023/10/02 08:40:58;;;;;;;29.88;12.75;;;;;;;16.50;100.00;101825.59;5062791;28;20021;-72
2023/10/02 08:43:28;;;;;;;29.98;11.82;;;;;;;16.57;100.00;101823.19;5043772;28;20108;-72
2023/10/02 08:45:54;;;;;;;32.92;13.35;;;;;;;16.68;100.00;101825.03;5057170;28;20031;-71
2023/10/02 08:48:25;;;;;;;25.80;11.63;;;;;;;16.66;100.00;101830.59;5058960;28;20037;-71
2023/10/02 08:50:57;;;;;;;27.50;11.60;;;;;;;16.66;100.00;101830.59;5062157;28;20478;-71
2023/10/02 08:53:24;;;;;;;29.27;11.80;;;;;;;16.72;100.00;101815.63;5057824;28;20095;-71
2023/10/02 08:56:03;;;;;;;31.50;12.90;;;;;;;16.75;100.00;101816.25;5051411;28;20103;-71
2023/10/02 08:58:29;;;;;;;25.83;10.98;;;;;;;16.75;100.00;101813.53;5042337;28;20069;-71
2023/10/02 09:03:42;;;;;;;24.88;10.75;;;;;;;16.83;100.00;101817.44;5050746;28;20037;-71
2023/10/02 09:11:37;;;;;;;25.58;11.48;;;;;;;17.03;100.00;101813.94;5055837;28;20037;-71
2023/10/02 09:14:16;;;;;;;27.35;11.60;;;;;;;17.06;100.00;101820.97;5060767;28;20353;-71
2023/10/02 09:16:45;;;;;;;29.98;13.20;;;;;;;17.08;100.00;101825.25;5059448;28;20508;-71
2023/10/02 09:19:28;;;;;;;;;;;;;;;17.14;100.00;101821.16;5058631;28;20033;-71
2023/10/02 09:22:07;;;;;;;31.45;12.65;;;;;;;17.16;100.00;101813.75;5050311;28;19913;-72
2023/10/02 09:24:40;;;;;;;27.20;12.23;;;;;;;17.19;100.00;101809.88;5054995;28;20090;-71
2023/10/02 09:27:27;;;;;;;30.98;13.13;;;;;;;17.24;100.00;101808.50;5059500;28;20430;-71
2023/10/02 09:30:19;;;;;;;28.23;12.60;;;;;;;17.25;100.00;101810.22;5061530;28;20029;-69
2023/10/02 09:32:49;;;;;;;27.13;13.00;;;;;;;17.26;100.00;101814.66;5050404;28;20048;-68
2023/10/02 09:35:39;;;;;;;29.50;12.77;;;;;;;17.29;100.00;101810.81;5041695;28;20107;-68
2023/10/02 09:38:10;;;;;;;26.40;11.68;;;;;;;17.30;100.00;101813.38;5059690;28;20033;-68
2023/10/02 09:43:28;;;;;;;28.98;13.30;;;;;;;17.33;100.00;101814.97;5057832;28;20058;-69
2023/10/02 09:45:55;;;;;;;29.70;12.95;;;;;;;17.34;100.00;101815.88;5045876;28;20021;-69
2023/10/02 09:51:28;;;;;;;29.30;12.05;;;;;;;17.37;100.00;101810.16;5054801;28;20032;-70
2023/10/02 09:54:05;;;;;;;29.35;13.02;;;;;;;17.40;100.00;101799.88;5054557;28;20073;-70
2023/10/02 09:56:51;;;;;;;28.67;12.48;;;;;;;17.40;100.00;101810.75;5061675;28;20025;-70
2023/10/02 09:59:17;;;;;;;27.27;10.45;;;;;;;17.44;100.00;101809.47;5054692;28;20036;-70
2023/10/02 10:02:09;;;;;;;33.75;11.52;;;;;;;17.46;100.00;101806.63;5062235;28;20392;-70
2023/10/02 10:08:18;;;;;;;27.20;10.48;;;;;;;17.61;100.00;101812.56;5055627;28;20039;-71
2023/10/02 10:10:48;;;;;;;30.60;12.13;;;;;;;17.67;100.00;101806.59;5040525;28;20052;-70
2023/10/02 10:13:36;;;;;;;29.77;12.00;;;;;;;17.74;100.00;101802.31;5059639;28;20035;-70
2023/10/02 10:16:20;;;;;;;29.63;12.73;;;;;;;17.78;100.00;101795.63;5061538;28;20504;-70
2023/10/02 10:22:01;;;;;;;28.52;11.43;;;;;;;17.85;100.00;101786.91;5056687;28;20072;-71
2023/10/02 10:25:22;;;;;;;27.10;12.40;;;;;;;17.92;100.00;101794.44;5053254;28;20032;-69
2023/10/02 10:27:54;;;;;;;27.05;10.75;;;;;;;17.92;100.00;101782.69;5055116;28;20043;-71
2023/10/02 10:30:27;;;;;;;27.70;11.43;;;;;;;17.97;100.00;101786.72;5062989;28;20029;-70
2023/10/02 10:33:15;;;;;;;26.98;10.93;;;;;;;17.96;100.00;101779.53;5061024;28;20496;-70
2023/10/02 10:35:48;;;;;;;28.42;11.15;;;;;;;17.98;100.00;101784.88;5059296;28;20132;-70
2023/10/02 10:38:28;;;;;;;32.80;13.10;;;;;;;18.07;100.00;101775.88;5044258;28;21676;-70
2023/10/02 10:41:06;;;;;;;27.95;11.23;;;;;;;18.07;100.00;101781.31;5042487;28;20016;-71
2023/10/02 10:43:44;;;;;;;27.20;11.50;;;;;;;18.13;100.00;101775.31;5054455;28;20037;-71
2023/10/02 10:46:19;;;;;;;27.60;12.35;;;;;;;18.13;100.00;101772.59;5046006;28;20102;-70
2023/10/02 10:48:53;;;;;;;28.52;12.45;;;;;;;18.16;100.00;101777.75;5053774;28;20500;-70
2023/10/02 10:51:21;;;;;;;31.05;12.95;;;;;;;18.21;100.00;101771.03;5054359;28;20025;-69
2023/10/02 10:53:47;;;;;;;29.10;12.32;;;;;;;18.23;100.00;101769.00;5061444;28;20386;-70
2023/10/02 10:56:18;;;;;;;32.78;14.15;;;;;;;18.27;100.00;101765.00;5060039;28;20031;-68
2023/10/02 10:58:45;;;;;;;30.30;13.10;;;;;;;18.33;100.00;101767.16;5052176;28;20549;-71
2023/10/02 11:01:20;;;;;;;31.52;12.82;;;;;;;18.35;100.00;101765.19;5063076;28;20054;-71
2023/10/02 11:03:54;;;;;;;34.97;13.55;;;;;;;18.42;100.00;101763.63;5060944;28;20067;-71
2023/10/02 11:06:23;;;;;;;32.17;12.88;;;;;;;18.46;100.00;101756.91;5061182;28;20052;-71
2023/10/02 11:09:11;;;;;;;32.55;13.10;;;;;;;18.51;100.00;101760.03;5054692;28;20024;-71
2023/10/02 11:11:48;;;;;;;31.15;13.23;;;;;;;18.55;100.00;101751.59;5058675;28;20400;-71
2023/10/02 11:14:20;;;;;;;28.38;13.23;;;;;;;18.60;100.00;101754.75;5053795;28;20024;-71
2023/10/02 11:16:50;;;;;;;27.98;12.55;;;;;;;18.66;100.00;101762.34;5046711;28;20186;-71
2023/10/02 11:22:16;;;;;;;30.20;13.73;;;;;;;18.71;100.00;101751.84;5056444;28;20007;-71
2023/10/02 11:25:18;;;;;;;32.08;13.25;;;;;;;18.76;100.00;101754.19;5060232;28;20032;-71
2023/10/02 11:27:56;;;;;;;27.38;10.93;;;;;;;18.88;100.00;101742.16;5054724;28;20059;-71
2023/10/02 11:30:31;;;;;;;29.05;11.80;;;;;;;18.91;100.00;101747.28;5060776;28;20127;-71
2023/10/02 11:33:07;;;;;;;27.67;11.35;;;;;;;18.97;100.00;101748.59;5060873;28;20066;-71
2023/10/02 11:35:37;;;;;;;33.55;12.65;;;;;;;19.11;100.00;101742.69;5053190;28;20430;-71
2023/10/02 11:38:07;;;;;;;27.15;11.15;;;;;;;19.13;100.00;101745.25;5057854;28;20196;-71
2023/10/02 11:40:33;;;;;;;30.67;11.68;;;;;;;19.20;100.00;101736.34;5059170;28;20070;-71
2023/10/02 11:42:59;;;;;;;28.85;12.48;;;;;;;19.30;100.00;101740.94;5062157;28;20381;-71
2023/10/02 11:45:32;;;;;;;28.48;12.23;;;;;;;19.32;100.00;101739.75;5053895;28;20024;-71
2023/10/02 11:47:58;;;;;;;26.08;10.80;;;;;;;19.35;100.00;101736.72;5059127;28;20095;-71
2023/10/02 11:50:23;;;;;;;26.38;11.27;;;;;;;19.37;100.00;101731.13;5057723;28;20120;-71
2023/10/02 11:52:49;;;;;;;27.48;10.90;;;;;;;19.39;100.00;101726.41;5062520;28;20037;-71
2023/10/02 11:55:18;;;;;;;28.00;11.77;;;;;;;19.47;100.00;101726.50;5061147;28;20040;-71
2023/10/02 11:57:51;;;;;;;26.83;11.15;;;;;;;19.52;100.00;101718.72;5042478;28;20029;-71
2023/10/02 12:00:20;;;;;;;25.83;10.73;;;;;;;19.59;100.00;101715.41;5048276;28;20034;-71
2023/10/02 12:02:46;;;;;;;29.42;10.60;;;;;;;19.64;100.00;101718.53;5051598;28;20025;-71
2023/10/02 12:05:11;;;;;;;25.20;10.38;;;;;;;19.68;100.00;101706.34;5053989;28;20115;-71
2023/10/02 12:07:38;;;;;;;25.52;10.10;;;;;;;19.67;100.00;101704.59;5059918;28;20134;-71
2023/10/02 12:10:06;;;;;;;29.38;11.20;;;;;;;19.73;100.00;101702.09;5061903;28;20033;-71
2023/10/02 12:12:31;;;;;;;26.00;10.68;;;;;;;19.74;100.00;101703.00;5061912;28;20040;-71
2023/10/02 12:14:57;;;;;;;25.70;10.15;;;;;;;19.77;100.00;101701.84;5058305;28;20028;-71
2023/10/02 12:17:22;;;;;;;29.17;11.27;;;;;;;19.80;100.00;101704.28;5062749;28;20020;-71